高知空港の過去48時間の天気

高知空港 (Kochi)

現在時刻: 7/17 18:42 JST (7/17 09:42 UTC) 以下の時間は現地時間です。

過去48時間のMETAR気象情報
時間 風向 風速(m/s) 視程 気温(℃) 湿度(%) 気圧(hPa) 天気現象
17 18:00 南南西 2 10km以上 29 79 1011
17 17:00 南南西 2 10km以上 30 70 1011
17 16:00 南南西 3 10km以上 31 66 1011
17 15:00 南南東 3 10km以上 30 70 1011
17 14:00 南南東 4 10km以上 31 70 1011
17 13:40 南南東 3 10km以上 32 67 1011
17 13:00 3 10km以上 30 75 1011
17 12:00 4 10km以上 30 70 1012
17 11:00 4 10km以上 30 70 1012
17 10:00 3 10km以上 30 70 1012
17 09:00 南南東 3 10km以上 30 70 1013
17 08:00 2 9000m 29 74 1013
17 07:00 3 9000m 27 84 1013
17 06:10 3 8000m 26 84 1013
RJOK 170900Z 20004KT 150V230 9999 FEW020 FEW030CB BKN/// 29/25 Q1011
RJOK 170800Z 21004KT 160V240 9999 FEW020 FEW030CB BKN/// 30/24 Q1011
RJOK 170700Z 21005KT 170V240 9999 FEW030 BKN/// 31/24 Q1011
RJOK 170600Z 16006KT 120V190 9999 FEW030 BKN/// 30/24 Q1011
RJOK 170500Z 16007KT 130V200 9999 FEW030 BKN/// 31/25 Q1011
RJOK 170440Z 15006KT 9999 FEW030 BKN/// 32/25 Q1011 RMK 1CU030 A2987
RJOK 170400Z 17006KT 140V210 9999 FEW030 BKN/// 30/25 Q1011
RJOK 170300Z 17007KT 9999 FEW030 BKN/// 30/24 Q1012
RJOK 170200Z 18007KT 9999 FEW020 BKN/// 30/24 Q1012
RJOK 170100Z 17006KT 9999 FEW020 SCT/// 30/24 Q1012
RJOK 170000Z 15005KT 9999 SCT015 30/24 Q1013
RJOK 162300Z 36003KT 320V050 9000 FEW015 29/24 Q1013
RJOK 162200Z 35005KT 9000 FEW010 BKN020 27/24 Q1013
RJOK 162110Z 35005KT 8000 FEW008 SCT010 BKN040 26/23 Q1013 RMK 1ST008 4ST010 5CU040 A2992